createdAt,value
2016-07-31T00:00:33.854Z,68.32
2016-07-31T00:01:27.822Z,68.44
2016-07-31T00:02:39.701Z,68.44
2016-07-31T00:03:40.518Z,68.51
2016-07-31T00:04:15.691Z,68.46
2016-07-31T00:05:37.738Z,68.58
2016-07-31T00:06:14.874Z,68.56
2016-07-31T00:07:37.620Z,68.52
2016-07-31T00:08:30.008Z,68.34
2016-07-31T00:09:33.449Z,68.44
2016-07-31T00:10:27.965Z,68.43
2016-07-31T00:11:29.584Z,68.26
2016-07-31T00:13:32.003Z,68.20
2016-07-31T00:14:25.772Z,68.31
2016-07-31T00:15:43.773Z,68.31
2016-07-31T00:16:14.468Z,68.23
2016-07-31T00:17:35.612Z,68.19
2016-07-31T00:18:31.366Z,68.19
2016-07-31T00:19:38.351Z,68.10
2016-07-31T00:20:13.922Z,68.23
2016-07-31T00:21:38.334Z,68.36
2016-07-31T00:22:38.852Z,68.34
2016-07-31T00:23:36.855Z,68.42
2016-07-31T00:24:33.881Z,68.36
2016-07-31T00:25:29.523Z,68.42
2016-07-31T00:26:37.462Z,68.55
2016-07-31T00:27:30.015Z,68.38
2016-07-31T00:28:30.435Z,68.56
2016-07-31T00:29:44.632Z,68.60
2016-07-31T00:30:30.665Z,68.64
2016-07-31T00:31:39.466Z,68.65
2016-07-31T00:32:39.238Z,68.79
2016-07-31T00:33:13.102Z,68.89
2016-07-31T00:34:33.217Z,68.88
2016-07-31T00:35:31.962Z,68.95
2016-07-31T00:36:28.592Z,68.93
2016-07-31T00:37:28.911Z,68.72
2016-07-31T00:38:31.331Z,67.75
2016-07-31T00:39:32.462Z,67.47
2016-07-31T00:40:35.153Z,67.62
2016-07-31T00:41:13.815Z,67.61
2016-07-31T00:42:39.401Z,67.62
2016-07-31T00:43:36.697Z,67.67
2016-07-31T00:44:12.506Z,67.60
2016-07-31T00:45:27.502Z,67.74
2016-07-31T00:46:13.492Z,68.54
2016-07-31T00:47:32.490Z,68.68
2016-07-31T00:48:33.276Z,68.52
2016-07-31T00:49:46.110Z,67.57
2016-07-31T00:50:13.947Z,67.42
2016-07-31T00:51:37.643Z,67.31
2016-07-31T00:52:32.508Z,67.51
2016-07-31T00:53:47.178Z,67.17
2016-07-31T00:54:20.175Z,68.35
2016-07-31T00:55:38.939Z,68.81
2016-07-31T00:56:37.559Z,68.92
2016-07-31T00:57:14.338Z,68.95
2016-07-31T00:58:28.891Z,68.95
2016-07-31T00:59:27.913Z,69.12
2016-07-31T01:00:43.292Z,69.19
2016-07-31T01:01:34.379Z,69.11
2016-07-31T01:02:16.131Z,68.95
2016-07-31T01:03:14.624Z,68.82
2016-07-31T01:04:29.361Z,68.84
2016-07-31T01:05:32.483Z,68.87
2016-07-31T01:06:35.221Z,68.80
2016-07-31T01:07:40.203Z,67.94
2016-07-31T01:08:14.656Z,69.03
2016-07-31T01:09:28.807Z,69.17
2016-07-31T01:10:33.576Z,69.16
2016-07-31T01:11:28.318Z,68.16
2016-07-31T01:12:36.465Z,68.00
2016-07-31T01:13:37.875Z,69.07
2016-07-31T01:14:17.628Z,69.25
2016-07-31T01:15:28.346Z,69.34
2016-07-31T01:16:14.812Z,69.41
2016-07-31T01:17:38.834Z,69.40
2016-07-31T01:18:28.056Z,69.41
2016-07-31T01:19:30.719Z,69.39
2016-07-31T01:20:37.298Z,69.36
2016-07-31T01:21:29.136Z,69.39
2016-07-31T01:22:38.047Z,69.38
2016-07-31T01:23:32.290Z,69.39
2016-07-31T01:24:37.848Z,69.34
2016-07-31T01:25:26.386Z,69.41
2016-07-31T01:26:36.134Z,69.28
2016-07-31T01:27:37.141Z,69.29
2016-07-31T01:28:36.755Z,69.26
2016-07-31T01:29:28.275Z,69.19
2016-07-31T01:30:27.075Z,69.18
2016-07-31T01:31:34.173Z,68.94
2016-07-31T01:32:41.300Z,68.08
2016-07-31T01:33:29.597Z,68.06
2016-07-31T01:34:16.043Z,67.93
2016-07-31T01:35:16.755Z,67.85
2016-07-31T01:36:36.931Z,67.90
2016-07-31T01:37:28.633Z,67.96
2016-07-31T01:38:19.660Z,67.89
2016-07-31T01:39:37.506Z,67.76
2016-07-31T01:40:28.376Z,67.64
2016-07-31T01:41:14.884Z,67.69
2016-07-31T01:42:38.313Z,68.75
2016-07-31T01:43:36.986Z,69.00
2016-07-31T01:44:40.240Z,69.02
2016-07-31T01:45:37.724Z,68.99
2016-07-31T01:46:33.387Z,69.17
2016-07-31T01:47:31.105Z,69.17
2016-07-31T01:48:37.091Z,69.12
2016-07-31T01:49:28.491Z,69.14
2016-07-31T01:50:45.172Z,69.30
2016-07-31T01:51:28.065Z,69.33
2016-07-31T01:52:36.414Z,69.45
2016-07-31T01:53:31.342Z,69.50
2016-07-31T01:54:28.445Z,69.56
2016-07-31T01:55:28.862Z,69.60
2016-07-31T01:56:32.422Z,69.71
2016-07-31T01:57:48.224Z,69.68
2016-07-31T01:58:44.859Z,69.67
2016-07-31T01:59:39.393Z,69.67
2016-07-31T02:00:43.691Z,69.77
2016-07-31T02:01:39.392Z,69.74
2016-07-31T02:02:36.419Z,69.65
2016-07-31T02:03:33.107Z,69.60
2016-07-31T02:04:38.475Z,69.64
2016-07-31T02:05:38.490Z,69.62
2016-07-31T02:06:32.822Z,69.60
2016-07-31T02:07:45.867Z,69.70
2016-07-31T02:08:35.154Z,69.63
2016-07-31T02:09:30.940Z,69.49
2016-07-31T02:10:32.408Z,69.36
2016-07-31T02:11:39.083Z,69.45
2016-07-31T02:12:24.881Z,69.24
2016-07-31T02:13:29.740Z,69.43
2016-07-31T02:14:32.599Z,69.29
2016-07-31T02:15:28.646Z,68.39
2016-07-31T02:16:31.346Z,68.14
2016-07-31T02:17:28.651Z,67.90
2016-07-31T02:18:37.557Z,67.91
2016-07-31T02:19:22.310Z,67.97
2016-07-31T02:20:35.910Z,67.89
2016-07-31T02:21:28.278Z,67.95
2016-07-31T02:22:38.178Z,67.86
2016-07-31T02:23:38.313Z,68.09
2016-07-31T02:24:32.464Z,68.97
2016-07-31T02:25:31.845Z,68.06
2016-07-31T02:26:38.424Z,67.89
2016-07-31T02:27:35.720Z,67.97
2016-07-31T02:28:37.295Z,67.90
2016-07-31T02:29:33.760Z,68.47
2016-07-31T02:30:34.778Z,69.19
2016-07-31T02:31:50.763Z,69.48
2016-07-31T02:32:28.193Z,69.56
2016-07-31T02:33:33.975Z,69.59
2016-07-31T02:34:28.434Z,69.76
2016-07-31T02:35:34.895Z,69.89
2016-07-31T02:36:34.657Z,69.90
2016-07-31T02:37:37.288Z,69.98
2016-07-31T02:38:32.153Z,70.01
2016-07-31T02:39:21.916Z,70.27
2016-07-31T02:40:44.870Z,69.53
2016-07-31T02:41:26.940Z,69.88
2016-07-31T02:42:34.404Z,70.06
2016-07-31T02:43:37.388Z,70.10
2016-07-31T02:44:38.879Z,70.05
2016-07-31T02:45:29.695Z,69.99
2016-07-31T02:46:34.305Z,70.10
2016-07-31T02:47:32.652Z,70.05
2016-07-31T02:48:21.221Z,69.23
2016-07-31T02:49:29.670Z,70.05
2016-07-31T02:50:28.449Z,70.26
2016-07-31T02:51:31.584Z,70.38
2016-07-31T02:52:28.163Z,70.34
2016-07-31T02:53:39.191Z,70.43
2016-07-31T02:54:30.024Z,70.43
2016-07-31T02:55:31.182Z,70.40
2016-07-31T02:56:34.288Z,70.37
2016-07-31T02:57:30.145Z,70.43
2016-07-31T02:58:33.966Z,70.38
2016-07-31T02:59:25.615Z,70.23
2016-07-31T03:00:32.379Z,70.12
2016-07-31T03:01:15.035Z,70.18
2016-07-31T03:02:39.671Z,70.26
2016-07-31T03:03:32.710Z,70.31
2016-07-31T03:04:37.244Z,70.29
2016-07-31T03:05:48.619Z,70.37
2016-07-31T03:06:33.527Z,70.47
2016-07-31T03:07:39.599Z,70.52
2016-07-31T03:08:34.463Z,70.46
2016-07-31T03:09:28.035Z,70.49
2016-07-31T03:10:32.902Z,70.51
2016-07-31T03:11:29.606Z,70.50
2016-07-31T03:12:33.567Z,70.54
2016-07-31T03:13:41.895Z,70.40
2016-07-31T03:14:29.790Z,70.47
2016-07-31T03:15:28.297Z,70.51
2016-07-31T03:16:47.843Z,70.34
2016-07-31T03:17:26.560Z,70.42
2016-07-31T03:18:16.297Z,70.40
2016-07-31T03:19:42.180Z,70.42
2016-07-31T03:20:29.919Z,70.57
2016-07-31T03:21:38.970Z,69.67
2016-07-31T03:22:30.317Z,69.30
2016-07-31T03:23:34.298Z,69.26
2016-07-31T03:24:34.240Z,69.11
2016-07-31T03:25:39.818Z,69.94
2016-07-31T03:26:12.707Z,69.96
2016-07-31T03:27:31.297Z,70.17
2016-07-31T03:28:48.686Z,70.31
2016-07-31T03:29:36.819Z,70.40
2016-07-31T03:30:16.341Z,70.43
2016-07-31T03:31:37.210Z,70.44
2016-07-31T03:32:32.609Z,70.44
2016-07-31T03:33:37.307Z,70.18
2016-07-31T03:34:23.218Z,70.12
2016-07-31T03:35:38.187Z,70.33
2016-07-31T03:36:38.347Z,70.24
2016-07-31T03:37:22.367Z,70.23
2016-07-31T03:38:41.015Z,69.09
2016-07-31T03:39:32.178Z,69.34
2016-07-31T03:40:27.244Z,70.03
2016-07-31T03:41:20.714Z,70.15
2016-07-31T03:42:51.709Z,70.32
2016-07-31T03:43:28.546Z,70.33
2016-07-31T03:44:23.909Z,70.36
2016-07-31T03:45:33.304Z,70.32
2016-07-31T03:46:37.232Z,70.39
2016-07-31T03:47:31.768Z,70.27
2016-07-31T03:48:32.565Z,70.33
2016-07-31T03:49:27.109Z,70.39
2016-07-31T03:50:38.801Z,70.32
2016-07-31T03:51:38.017Z,70.30
2016-07-31T03:52:14.681Z,70.39
2016-07-31T03:53:47.855Z,70.41
2016-07-31T03:54:27.660Z,70.48
2016-07-31T03:55:38.071Z,70.51
2016-07-31T03:56:31.452Z,70.58
2016-07-31T03:57:56.954Z,70.60
2016-07-31T03:58:28.249Z,70.65
2016-07-31T03:59:14.636Z,70.53
2016-07-31T04:00:29.358Z,70.49
2016-07-31T04:01:29.196Z,70.78
2016-07-31T04:02:39.794Z,70.70
2016-07-31T04:03:50.193Z,70.70
2016-07-31T04:04:38.509Z,70.82
2016-07-31T04:05:37.281Z,70.80
2016-07-31T04:06:45.070Z,70.90
2016-07-31T04:07:28.350Z,70.91
2016-07-31T04:08:32.713Z,70.73
2016-07-31T04:09:36.276Z,70.74
2016-07-31T04:10:29.706Z,70.70
2016-07-31T04:11:36.905Z,70.57
2016-07-31T04:12:34.385Z,70.58
2016-07-31T04:13:31.065Z,70.55
2016-07-31T04:14:28.946Z,70.60
2016-07-31T04:15:29.052Z,70.69
2016-07-31T04:16:36.869Z,70.78
2016-07-31T04:17:38.786Z,70.77
2016-07-31T04:18:23.730Z,70.94
2016-07-31T04:19:38.374Z,69.90
2016-07-31T04:20:33.481Z,70.00
2016-07-31T04:21:28.311Z,70.47
2016-07-31T04:22:32.414Z,70.52
2016-07-31T04:23:30.497Z,70.53
2016-07-31T04:24:28.985Z,70.42
2016-07-31T04:25:20.380Z,70.20
2016-07-31T04:26:32.767Z,69.92
2016-07-31T04:27:28.854Z,69.96
2016-07-31T04:28:37.588Z,69.84
2016-07-31T04:29:39.526Z,69.52
2016-07-31T04:30:39.296Z,69.37
2016-07-31T04:31:28.322Z,69.42
2016-07-31T04:32:34.316Z,69.47
2016-07-31T04:33:34.565Z,69.63
2016-07-31T04:34:38.869Z,69.80
2016-07-31T04:35:34.029Z,69.86
2016-07-31T04:36:49.360Z,69.82
2016-07-31T04:37:36.994Z,69.79
2016-07-31T04:38:29.335Z,69.68
2016-07-31T04:39:37.531Z,69.55
2016-07-31T04:40:31.832Z,69.41
2016-07-31T04:41:37.834Z,69.45
2016-07-31T04:42:33.029Z,69.57
2016-07-31T04:43:30.857Z,69.46
2016-07-31T04:44:45.487Z,69.36
2016-07-31T04:45:32.508Z,69.17
2016-07-31T04:46:36.710Z,68.96
2016-07-31T04:47:53.149Z,68.85
2016-07-31T04:48:28.405Z,68.61
2016-07-31T04:49:29.177Z,68.75
2016-07-31T04:50:39.334Z,68.80
2016-07-31T04:51:37.125Z,68.78
2016-07-31T04:52:34.635Z,68.87
2016-07-31T04:53:39.237Z,68.72
2016-07-31T04:54:38.278Z,68.40
2016-07-31T04:55:40.414Z,68.42
2016-07-31T04:56:29.881Z,68.04
2016-07-31T04:57:37.738Z,67.78
2016-07-31T04:58:27.286Z,67.38
2016-07-31T04:59:31.721Z,67.70
2016-07-31T05:00:27.477Z,67.28
2016-07-31T05:01:29.387Z,67.30
2016-07-31T05:02:28.787Z,67.65
2016-07-31T05:03:28.867Z,67.69
2016-07-31T05:04:35.296Z,67.59
2016-07-31T05:05:29.963Z,67.50
2016-07-31T05:06:27.943Z,67.64
2016-07-31T05:07:29.863Z,67.44
2016-07-31T05:08:29.497Z,67.48
2016-07-31T05:09:13.151Z,67.24
2016-07-31T05:10:33.628Z,66.16
2016-07-31T05:11:33.314Z,66.03
2016-07-31T05:12:36.786Z,66.93
2016-07-31T05:13:33.221Z,67.04
2016-07-31T05:14:28.070Z,67.01
2016-07-31T05:15:32.633Z,67.32
2016-07-31T05:16:14.858Z,67.73
2016-07-31T05:17:38.215Z,67.72
2016-07-31T05:18:39.356Z,67.34
2016-07-31T05:19:36.194Z,67.20
2016-07-31T05:20:32.331Z,67.29
2016-07-31T05:21:32.653Z,67.35
2016-07-31T05:22:51.224Z,67.36
2016-07-31T05:23:27.662Z,67.63
2016-07-31T05:24:37.954Z,67.40
2016-07-31T05:25:31.965Z,67.38
2016-07-31T05:26:38.720Z,67.72
2016-07-31T05:27:45.099Z,67.78
2016-07-31T05:28:49.101Z,67.76
2016-07-31T05:29:36.212Z,67.69
2016-07-31T05:30:19.858Z,67.84
2016-07-31T05:31:38.142Z,67.89
2016-07-31T05:32:35.919Z,67.42
2016-07-31T05:33:24.071Z,67.35
2016-07-31T05:34:23.203Z,67.61
2016-07-31T05:35:25.078Z,67.76
2016-07-31T05:36:45.011Z,67.94
2016-07-31T05:37:31.209Z,67.95
2016-07-31T05:38:39.384Z,68.00
2016-07-31T05:39:28.711Z,68.31
2016-07-31T05:40:34.994Z,68.93
2016-07-31T05:41:28.733Z,68.83
2016-07-31T05:42:26.419Z,68.97
2016-07-31T05:43:39.394Z,69.26
2016-07-31T05:44:32.284Z,69.15
2016-07-31T05:45:27.754Z,68.89
2016-07-31T05:46:36.622Z,68.86
2016-07-31T05:47:15.364Z,68.34
2016-07-31T05:48:38.999Z,68.30
2016-07-31T05:49:30.216Z,68.80
2016-07-31T05:50:15.358Z,69.02
2016-07-31T05:51:25.743Z,69.02
2016-07-31T05:52:29.437Z,68.32
2016-07-31T05:53:29.979Z,68.35
2016-07-31T05:54:33.121Z,68.46
2016-07-31T05:55:13.053Z,68.10
2016-07-31T05:56:34.668Z,67.94
2016-07-31T05:57:43.590Z,67.70
2016-07-31T05:58:34.951Z,68.09
2016-07-31T05:59:44.503Z,68.22
2016-07-31T06:00:15.961Z,68.31
2016-07-31T06:01:33.135Z,68.69
2016-07-31T06:02:32.692Z,69.24
2016-07-31T06:03:28.655Z,70.00
2016-07-31T06:04:35.744Z,70.23
2016-07-31T06:05:39.600Z,70.19
2016-07-31T06:06:38.050Z,70.15
2016-07-31T06:07:39.986Z,70.10
2016-07-31T06:08:29.814Z,70.24
2016-07-31T06:09:15.274Z,70.28
2016-07-31T06:10:45.883Z,70.43
2016-07-31T06:11:14.869Z,70.33
2016-07-31T06:12:15.033Z,70.43
2016-07-31T06:13:30.752Z,70.42
2016-07-31T06:14:13.997Z,70.39
2016-07-31T06:15:40.804Z,70.30
2016-07-31T06:16:12.732Z,70.35
2016-07-31T06:17:28.782Z,69.15
2016-07-31T06:18:38.964Z,68.90
2016-07-31T06:19:28.794Z,68.74
2016-07-31T06:20:31.719Z,68.95
2016-07-31T06:21:32.725Z,68.82
2016-07-31T06:22:39.430Z,68.45
2016-07-31T06:23:38.978Z,68.32
2016-07-31T06:24:18.236Z,68.04
2016-07-31T06:25:42.960Z,68.17
2016-07-31T06:26:38.801Z,68.28
2016-07-31T06:27:26.741Z,69.00
2016-07-31T06:28:30.297Z,68.89
2016-07-31T06:29:30.272Z,68.74
2016-07-31T06:30:45.917Z,68.33
2016-07-31T06:31:38.699Z,67.24
2016-07-31T06:32:40.957Z,66.97
2016-07-31T06:33:21.136Z,67.16
2016-07-31T06:34:38.864Z,67.55
2016-07-31T06:35:34.227Z,68.14
2016-07-31T06:36:34.880Z,68.07
2016-07-31T06:37:14.081Z,67.91
2016-07-31T06:38:27.910Z,68.13
2016-07-31T06:39:31.816Z,68.26
2016-07-31T06:40:39.126Z,68.70
2016-07-31T06:41:31.471Z,68.66
2016-07-31T06:42:39.181Z,68.60
2016-07-31T06:43:59.469Z,68.62
2016-07-31T06:44:36.940Z,69.09
2016-07-31T06:45:13.904Z,69.20
2016-07-31T06:46:15.841Z,69.36
2016-07-31T06:47:31.781Z,69.45
2016-07-31T06:48:33.407Z,69.03
2016-07-31T06:49:30.041Z,68.08
2016-07-31T06:50:31.983Z,68.12
2016-07-31T06:51:37.414Z,67.82
2016-07-31T06:52:40.940Z,67.94
2016-07-31T06:53:12.615Z,68.17
2016-07-31T06:54:33.949Z,68.58
2016-07-31T06:55:33.763Z,68.74
2016-07-31T06:56:46.928Z,68.61
2016-07-31T06:57:36.217Z,68.68
2016-07-31T06:58:35.358Z,68.56
2016-07-31T06:59:32.431Z,67.80
2016-07-31T07:00:25.804Z,67.53
2016-07-31T07:01:15.144Z,67.68
2016-07-31T07:02:31.491Z,68.02
2016-07-31T07:03:13.096Z,68.25
2016-07-31T07:04:11.619Z,69.15
2016-07-31T07:05:39.095Z,68.89
2016-07-31T07:06:38.746Z,68.54
2016-07-31T07:07:22.283Z,67.63
2016-07-31T07:08:37.678Z,67.58
2016-07-31T07:09:30.332Z,67.39
2016-07-31T07:10:37.359Z,66.63
2016-07-31T07:11:38.070Z,66.40
2016-07-31T07:12:36.684Z,67.00
2016-07-31T07:13:14.993Z,67.30
2016-07-31T07:14:31.140Z,67.42
2016-07-31T07:15:21.224Z,66.88
2016-07-31T07:16:32.303Z,66.42
2016-07-31T07:17:30.116Z,66.48
2016-07-31T07:18:30.866Z,65.94
2016-07-31T07:19:33.808Z,65.77
2016-07-31T07:20:31.447Z,65.41
2016-07-31T07:21:37.290Z,65.49
2016-07-31T07:22:30.473Z,65.85
2016-07-31T07:23:29.868Z,66.17
2016-07-31T07:24:37.780Z,65.86
2016-07-31T07:25:27.486Z,65.66
2016-07-31T07:26:38.605Z,65.18
2016-07-31T07:27:25.938Z,65.38
2016-07-31T07:28:36.107Z,65.26
2016-07-31T07:30:39.359Z,66.09
2016-07-31T07:31:32.291Z,66.14
2016-07-31T07:32:24.836Z,65.64
2016-07-31T07:33:37.395Z,66.32
2016-07-31T07:34:24.594Z,66.46
2016-07-31T07:35:39.039Z,66.47
2016-07-31T07:36:37.781Z,66.61
2016-07-31T07:37:46.166Z,66.64
2016-07-31T07:38:37.784Z,66.16
2016-07-31T07:39:50.788Z,66.04
2016-07-31T07:40:39.247Z,65.80
2016-07-31T07:41:40.553Z,66.27
2016-07-31T07:42:27.972Z,66.29
2016-07-31T07:43:32.124Z,66.43
2016-07-31T07:45:26.188Z,66.38
2016-07-31T07:46:31.160Z,66.21
2016-07-31T07:47:38.454Z,66.23
2016-07-31T07:48:45.722Z,66.25
2016-07-31T07:49:14.426Z,66.43
2016-07-31T07:50:43.311Z,66.52
2016-07-31T07:51:34.543Z,66.47
2016-07-31T07:52:39.203Z,66.50
2016-07-31T07:53:30.142Z,66.57
2016-07-31T07:54:41.899Z,66.73
2016-07-31T07:55:31.617Z,66.44
2016-07-31T07:56:46.394Z,66.76
2016-07-31T07:57:49.265Z,66.96
2016-07-31T07:58:49.049Z,66.74
2016-07-31T08:00:37.830Z,66.95
2016-07-31T08:01:34.848Z,67.10
2016-07-31T08:02:27.765Z,67.14
2016-07-31T08:03:38.543Z,67.04
2016-07-31T08:04:39.469Z,67.27
2016-07-31T08:05:37.030Z,66.24
2016-07-31T08:06:25.140Z,65.92
2016-07-31T08:07:17.369Z,65.73
2016-07-31T08:08:30.098Z,65.75
2016-07-31T08:09:28.971Z,65.77
2016-07-31T08:10:10.693Z,65.72
2016-07-31T08:11:31.689Z,66.76
2016-07-31T08:12:23.486Z,66.87
2016-07-31T08:13:40.805Z,66.88
2016-07-31T08:14:49.768Z,67.02
2016-07-31T08:15:20.580Z,66.90
2016-07-31T08:16:32.668Z,67.14
2016-07-31T08:17:37.489Z,67.08
2016-07-31T08:18:45.098Z,67.08
2016-07-31T08:19:46.291Z,67.19
2016-07-31T08:20:38.028Z,67.21
2016-07-31T08:21:13.118Z,67.31
2016-07-31T08:22:30.991Z,67.45
2016-07-31T08:23:24.760Z,67.44
2016-07-31T08:24:33.940Z,67.32
2016-07-31T08:25:31.490Z,67.22
2016-07-31T08:26:14.078Z,66.99
2016-07-31T08:27:31.878Z,65.95
2016-07-31T08:28:18.231Z,65.82
2016-07-31T08:29:13.916Z,65.70
2016-07-31T08:30:46.379Z,65.61
2016-07-31T08:31:38.548Z,65.65
2016-07-31T08:32:35.104Z,65.62
2016-07-31T08:33:32.319Z,66.59
2016-07-31T08:34:28.471Z,66.84
2016-07-31T08:35:13.521Z,66.91
2016-07-31T08:36:28.975Z,67.17
2016-07-31T08:37:24.615Z,66.01
2016-07-31T08:38:25.114Z,65.71
2016-07-31T08:39:37.961Z,65.66
2016-07-31T08:40:28.759Z,65.66
2016-07-31T08:41:36.189Z,65.69
2016-07-31T08:42:34.309Z,65.59
2016-07-31T08:43:13.287Z,65.80
2016-07-31T08:44:14.079Z,66.67
2016-07-31T08:45:27.177Z,66.89
2016-07-31T08:46:28.814Z,67.14
2016-07-31T08:47:26.415Z,67.45
2016-07-31T08:48:38.493Z,67.18
2016-07-31T08:49:28.964Z,67.16
2016-07-31T08:50:30.404Z,67.41
2016-07-31T08:51:55.178Z,67.28
2016-07-31T08:52:39.051Z,67.43
2016-07-31T08:53:26.279Z,67.43
2016-07-31T08:54:37.696Z,67.23
2016-07-31T08:55:39.932Z,67.66
2016-07-31T08:56:33.085Z,67.56
2016-07-31T08:57:37.681Z,67.68
2016-07-31T08:58:32.235Z,67.45
2016-07-31T08:59:18.860Z,67.40
2016-07-31T09:00:42.941Z,67.41
2016-07-31T09:01:28.524Z,67.40
2016-07-31T09:02:28.814Z,67.52
2016-07-31T09:03:33.488Z,67.32
2016-07-31T09:04:28.995Z,67.27
2016-07-31T09:05:27.076Z,67.37
2016-07-31T09:06:25.880Z,67.24
2016-07-31T09:07:34.460Z,67.36
2016-07-31T09:08:27.610Z,67.36
2016-07-31T09:09:32.842Z,67.41
2016-07-31T09:10:32.438Z,67.43
2016-07-31T09:11:32.436Z,67.37
2016-07-31T09:12:32.148Z,67.36
2016-07-31T09:13:33.157Z,67.33
2016-07-31T09:14:39.177Z,67.33
2016-07-31T09:15:37.176Z,67.28
2016-07-31T09:16:31.587Z,67.44
2016-07-31T09:17:14.809Z,67.39
2016-07-31T09:18:39.192Z,67.18
2016-07-31T09:19:32.456Z,66.68
2016-07-31T09:20:26.319Z,67.16
2016-07-31T09:21:37.176Z,67.30
2016-07-31T09:22:16.928Z,67.28
2016-07-31T09:23:54.348Z,67.32
2016-07-31T09:24:37.587Z,67.37
2016-07-31T09:25:39.922Z,67.38
2016-07-31T09:26:13.083Z,67.40
2016-07-31T09:27:38.235Z,67.35
2016-07-31T09:28:21.833Z,67.63
2016-07-31T09:29:38.286Z,67.67
2016-07-31T09:30:32.956Z,66.35
2016-07-31T09:31:12.706Z,66.19
2016-07-31T09:32:43.948Z,66.01
2016-07-31T09:33:14.146Z,65.82
2016-07-31T09:34:43.405Z,65.72
2016-07-31T09:35:39.137Z,65.69
2016-07-31T09:36:54.932Z,66.03
2016-07-31T09:37:32.202Z,66.66
2016-07-31T09:38:30.000Z,66.86
2016-07-31T09:39:28.027Z,66.93
2016-07-31T09:40:13.910Z,67.00
2016-07-31T09:41:16.431Z,67.05
2016-07-31T09:42:29.701Z,67.07
2016-07-31T09:43:13.382Z,66.90
2016-07-31T09:44:25.681Z,66.02
2016-07-31T09:45:36.348Z,65.75
2016-07-31T09:46:28.588Z,65.66
2016-07-31T09:47:33.213Z,65.65
2016-07-31T09:48:35.892Z,65.63
2016-07-31T09:49:30.152Z,65.59
2016-07-31T09:50:33.330Z,65.57
2016-07-31T09:51:18.706Z,65.68
2016-07-31T09:52:32.698Z,66.68
2016-07-31T09:53:13.118Z,66.79
2016-07-31T09:54:10.626Z,66.95
2016-07-31T09:55:16.177Z,66.97
2016-07-31T09:56:13.727Z,67.03
2016-07-31T09:57:34.402Z,67.06
2016-07-31T09:58:14.531Z,67.08
2016-07-31T09:59:32.420Z,67.09
2016-07-31T10:00:32.163Z,67.07
2016-07-31T10:01:44.171Z,67.08
2016-07-31T10:02:50.117Z,67.14
2016-07-31T10:03:15.629Z,67.13
2016-07-31T10:04:13.992Z,67.07
2016-07-31T10:05:42.010Z,67.11
2016-07-31T10:06:33.236Z,67.13
2016-07-31T10:07:32.926Z,67.16
2016-07-31T10:08:36.224Z,67.19
2016-07-31T10:09:45.512Z,67.18
2016-07-31T10:10:39.110Z,67.12
2016-07-31T10:11:29.785Z,67.11
2016-07-31T10:12:30.329Z,67.15
2016-07-31T10:13:28.986Z,67.19
2016-07-31T10:14:18.262Z,67.18
2016-07-31T10:15:30.353Z,67.17
2016-07-31T10:16:24.363Z,67.24
2016-07-31T10:17:13.239Z,66.09
2016-07-31T10:18:37.946Z,65.84
2016-07-31T10:19:34.846Z,66.10
2016-07-31T10:20:40.752Z,66.73
2016-07-31T10:21:38.234Z,66.97
2016-07-31T10:22:13.042Z,65.97
2016-07-31T10:23:30.063Z,65.75
2016-07-31T10:24:38.358Z,65.71
2016-07-31T10:25:20.074Z,65.64
2016-07-31T10:26:45.116Z,65.61
2016-07-31T10:27:24.254Z,65.68
2016-07-31T10:28:38.238Z,66.62
2016-07-31T10:29:13.090Z,66.82
2016-07-31T10:30:30.208Z,67.00
2016-07-31T10:31:44.264Z,67.06
2016-07-31T10:32:38.184Z,67.04
2016-07-31T10:33:41.297Z,67.09
2016-07-31T10:34:16.475Z,67.07
2016-07-31T10:35:51.339Z,67.15
2016-07-31T10:36:44.116Z,67.17
2016-07-31T10:37:13.018Z,67.19
2016-07-31T10:38:12.673Z,67.12
2016-07-31T10:39:38.004Z,67.16
2016-07-31T10:40:14.040Z,67.19
2016-07-31T10:41:38.389Z,67.20
2016-07-31T10:42:13.454Z,67.17
2016-07-31T10:43:12.593Z,67.09
2016-07-31T10:44:51.156Z,67.19
2016-07-31T10:45:39.295Z,67.19
2016-07-31T10:46:33.054Z,67.12
2016-07-31T10:47:27.430Z,67.19
2016-07-31T10:48:29.120Z,67.22
2016-07-31T10:49:13.577Z,67.21
2016-07-31T10:50:20.026Z,66.97
2016-07-31T10:51:23.365Z,67.47
2016-07-31T10:52:15.644Z,68.60
2016-07-31T10:53:23.424Z,68.83
2016-07-31T10:54:38.783Z,68.58
2016-07-31T10:55:15.412Z,69.09
2016-07-31T10:56:17.970Z,69.06
2016-07-31T10:57:13.676Z,68.87
2016-07-31T10:58:29.130Z,69.04
2016-07-31T10:59:29.739Z,69.00
2016-07-31T11:00:36.835Z,68.92
2016-07-31T11:01:13.953Z,68.74
2016-07-31T11:02:24.004Z,69.10
2016-07-31T11:03:30.231Z,69.14
2016-07-31T11:04:33.458Z,69.18
2016-07-31T11:05:27.356Z,69.31
2016-07-31T11:06:40.164Z,69.11
2016-07-31T11:07:20.164Z,68.91
2016-07-31T11:08:25.339Z,68.98
2016-07-31T11:09:37.146Z,69.08
2016-07-31T11:10:37.831Z,69.28
2016-07-31T11:11:32.257Z,69.30
2016-07-31T11:12:28.950Z,69.29
2016-07-31T11:13:28.708Z,69.02
2016-07-31T11:14:37.919Z,69.48
2016-07-31T11:15:32.627Z,69.52
2016-07-31T11:16:26.993Z,69.50
2016-07-31T11:17:34.355Z,69.47
2016-07-31T11:18:22.711Z,69.28
2016-07-31T11:19:29.023Z,68.27
2016-07-31T11:20:31.759Z,68.00
2016-07-31T11:21:37.115Z,68.04
2016-07-31T11:22:31.894Z,67.79
2016-07-31T11:23:15.097Z,68.03
2016-07-31T11:24:17.818Z,68.93
2016-07-31T11:25:16.999Z,69.06
2016-07-31T11:26:20.874Z,69.27
2016-07-31T11:27:12.531Z,69.33
2016-07-31T11:28:40.213Z,69.26
2016-07-31T11:29:33.085Z,69.48
2016-07-31T11:30:13.255Z,69.41
2016-07-31T11:31:13.674Z,69.49
2016-07-31T11:32:12.856Z,69.56
2016-07-31T11:33:27.990Z,69.54
2016-07-31T11:34:39.126Z,69.53
2016-07-31T11:35:32.542Z,69.50
2016-07-31T11:36:33.424Z,69.57
2016-07-31T11:37:39.712Z,69.48
2016-07-31T11:38:22.390Z,69.65
2016-07-31T11:39:13.611Z,69.66
2016-07-31T11:40:13.315Z,69.64
2016-07-31T11:41:45.477Z,69.59
2016-07-31T11:42:19.859Z,69.37
2016-07-31T11:43:42.522Z,69.66
2016-07-31T11:44:17.900Z,69.72
2016-07-31T11:46:13.554Z,69.64
2016-07-31T11:47:28.842Z,69.72
2016-07-31T11:48:39.352Z,69.45
2016-07-31T11:49:30.806Z,69.53
2016-07-31T11:50:38.812Z,69.72
2016-07-31T11:51:29.959Z,69.49
2016-07-31T11:52:26.953Z,69.72
2016-07-31T11:53:23.721Z,69.57
2016-07-31T11:54:32.038Z,69.86
2016-07-31T11:55:14.098Z,69.67
2016-07-31T11:56:34.774Z,69.67
2016-07-31T11:57:34.811Z,69.63
2016-07-31T11:58:14.017Z,69.74
2016-07-31T11:59:37.613Z,69.77
2016-07-31T12:01:33.994Z,69.65
2016-07-31T12:02:38.963Z,69.73
2016-07-31T12:03:37.505Z,69.66
2016-07-31T12:04:20.943Z,69.68
2016-07-31T12:05:14.788Z,69.82
2016-07-31T12:06:14.052Z,69.83
2016-07-31T12:07:15.045Z,69.70
2016-07-31T12:08:16.917Z,69.71
2016-07-31T12:09:33.970Z,69.77
2016-07-31T12:10:21.731Z,69.78
2016-07-31T12:11:39.707Z,69.74
2016-07-31T12:12:34.118Z,69.54
2016-07-31T12:13:18.383Z,69.67
2016-07-31T12:14:40.235Z,69.78
2016-07-31T12:16:27.593Z,69.84
2016-07-31T12:17:43.137Z,69.61
2016-07-31T12:18:38.731Z,69.67
2016-07-31T12:19:39.025Z,69.49
2016-07-31T12:20:12.850Z,69.53
2016-07-31T12:21:26.145Z,69.63
2016-07-31T12:22:31.031Z,69.53
2016-07-31T12:23:38.054Z,69.53
2016-07-31T12:24:31.751Z,69.53
2016-07-31T12:25:31.653Z,69.45
2016-07-31T12:26:17.567Z,69.41
2016-07-31T12:27:27.904Z,69.43
2016-07-31T12:28:25.048Z,69.21
2016-07-31T12:29:19.936Z,69.37
2016-07-31T12:30:33.961Z,69.33
2016-07-31T12:31:31.741Z,69.29
2016-07-31T12:32:38.943Z,69.17
2016-07-31T12:33:20.830Z,69.15
2016-07-31T12:34:36.594Z,69.15
2016-07-31T12:35:39.003Z,69.13
2016-07-31T12:36:32.664Z,69.13
2016-07-31T12:37:32.428Z,68.97
2016-07-31T12:38:35.973Z,68.89
2016-07-31T12:39:37.487Z,68.77
2016-07-31T12:40:28.183Z,68.75
2016-07-31T12:41:45.020Z,68.65
2016-07-31T12:42:32.422Z,68.57
2016-07-31T12:43:38.187Z,68.46
2016-07-31T12:44:29.068Z,68.43
2016-07-31T12:45:14.334Z,68.40
2016-07-31T12:46:27.371Z,68.50
2016-07-31T12:47:32.820Z,68.51
2016-07-31T12:48:37.860Z,68.35
2016-07-31T12:49:23.749Z,68.30
2016-07-31T12:50:33.735Z,68.25
2016-07-31T12:51:37.366Z,68.25
2016-07-31T12:52:14.117Z,68.31
2016-07-31T12:53:28.886Z,68.34
2016-07-31T12:54:38.634Z,68.37
2016-07-31T12:55:44.865Z,68.35
2016-07-31T12:56:40.282Z,68.30
2016-07-31T12:57:13.379Z,68.34
2016-07-31T12:58:13.376Z,68.36
2016-07-31T12:59:37.224Z,68.33